createdAt,value
2023-01-04T00:02:03.682Z,11.00
2023-01-04T00:04:50.514Z,11.10
2023-01-04T00:07:35.983Z,11.00
2023-01-04T00:10:21.048Z,10.90
2023-01-04T00:13:06.568Z,10.80
2023-01-04T00:15:52.182Z,10.80
2023-01-04T00:18:37.784Z,10.90
2023-01-04T00:21:25.554Z,10.90
2023-01-04T00:24:11.039Z,10.90
2023-01-04T00:26:56.538Z,11.10
2023-01-04T00:29:42.105Z,10.80
2023-01-04T00:32:27.921Z,10.90
2023-01-04T00:35:32.855Z,10.90
2023-01-04T00:38:20.165Z,11.10
2023-01-04T00:41:05.947Z,11.00
2023-01-04T00:43:51.614Z,10.70
2023-01-04T00:46:37.142Z,10.60
2023-01-04T00:49:22.852Z,10.50
2023-01-04T00:52:08.323Z,10.40
2023-01-04T00:54:55.322Z,10.80
2023-01-04T00:57:40.795Z,10.90
2023-01-04T01:00:26.294Z,10.90
2023-01-04T01:03:11.920Z,10.90
2023-01-04T01:06:00.878Z,10.80
2023-01-04T01:08:46.234Z,11.00
2023-01-04T01:11:32.885Z,11.10
2023-01-04T01:14:19.378Z,11.10
2023-01-04T01:17:05.144Z,11.00
2023-01-04T01:19:50.750Z,11.10
2023-01-04T01:22:36.133Z,11.10
2023-01-04T01:25:21.506Z,11.00
2023-01-04T01:28:08.468Z,11.20
2023-01-04T01:30:54.069Z,11.40
2023-01-04T01:33:40.245Z,11.20
2023-01-04T01:36:26.271Z,11.00
2023-01-04T01:39:11.772Z,11.40
2023-01-04T01:41:57.045Z,11.00
2023-01-04T01:44:57.021Z,11.20
2023-01-04T01:47:43.625Z,11.20
2023-01-04T01:50:31.266Z,11.20
2023-01-04T01:53:17.006Z,11.30
2023-01-04T01:56:03.330Z,11.30
2023-01-04T01:58:51.748Z,11.20
2023-01-04T02:01:38.613Z,11.40
2023-01-04T02:04:24.041Z,11.30
2023-01-04T02:07:10.329Z,11.50
2023-01-04T02:09:56.064Z,11.60
2023-01-04T02:12:42.114Z,11.50
2023-01-04T02:15:29.559Z,11.50
2023-01-04T02:18:18.015Z,11.60
2023-01-04T02:21:06.687Z,11.60
2023-01-04T02:24:19.520Z,11.50
2023-01-04T02:27:13.134Z,11.70
2023-01-04T02:30:15.655Z,11.60
2023-01-04T02:33:08.048Z,11.50
2023-01-04T02:35:58.248Z,11.60
2023-01-04T02:38:49.597Z,11.60
2023-01-04T02:41:41.076Z,11.80
2023-01-04T02:44:47.632Z,11.70
2023-01-04T02:47:53.655Z,11.80
2023-01-04T02:50:50.724Z,12.00
2023-01-04T02:53:37.731Z,11.70
2023-01-04T02:56:35.553Z,11.90
2023-01-04T02:59:28.039Z,11.90
2023-01-04T03:02:44.199Z,12.00
2023-01-04T03:05:58.403Z,12.10
2023-01-04T03:08:49.650Z,11.90
2023-01-04T03:11:57.086Z,12.20
2023-01-04T03:14:45.278Z,12.20
2023-01-04T03:17:33.651Z,12.00
2023-01-04T03:20:20.519Z,12.20
2023-01-04T03:23:26.727Z,12.20
2023-01-04T03:26:33.491Z,12.10
2023-01-04T03:29:39.978Z,12.10
2023-01-04T03:32:46.106Z,12.00
2023-01-04T03:35:37.685Z,12.10
2023-01-04T03:38:53.176Z,12.20
2023-01-04T03:42:02.989Z,12.10
2023-01-04T03:45:10.860Z,12.00
2023-01-04T03:48:18.778Z,12.20
2023-01-04T03:51:10.269Z,12.30
2023-01-04T03:53:57.094Z,12.40
2023-01-04T03:56:45.083Z,12.50
2023-01-04T03:59:30.417Z,12.60
2023-01-04T04:02:19.121Z,12.70
2023-01-04T04:05:23.708Z,12.70
2023-01-04T04:08:28.051Z,12.80
2023-01-04T04:11:31.825Z,12.90
2023-01-04T04:14:18.888Z,12.90
2023-01-04T04:17:04.450Z,12.70
2023-01-04T04:19:49.872Z,12.60
2023-01-04T04:22:35.733Z,12.80
2023-01-04T04:25:21.237Z,12.80
2023-01-04T04:28:06.948Z,12.80
2023-01-04T04:30:53.718Z,13.00
2023-01-04T04:33:39.853Z,13.20
2023-01-04T04:36:25.187Z,13.30
2023-01-04T04:39:10.813Z,13.40
2023-01-04T04:41:56.016Z,13.30
2023-01-04T04:44:41.381Z,13.50
2023-01-04T04:47:28.073Z,13.30
2023-01-04T04:50:13.713Z,13.50
2023-01-04T04:52:59.575Z,13.30
2023-01-04T04:55:45.057Z,13.40
2023-01-04T04:58:30.821Z,13.40
2023-01-04T05:01:17.378Z,13.30
2023-01-04T05:04:04.728Z,13.50
2023-01-04T05:06:52.906Z,13.40
2023-01-04T05:09:38.385Z,13.50
2023-01-04T05:12:42.546Z,13.40
2023-01-04T05:15:31.699Z,13.30
2023-01-04T05:18:19.235Z,13.10
2023-01-04T05:21:06.259Z,13.20
2023-01-04T05:23:52.196Z,13.10
2023-01-04T05:26:38.224Z,13.30
2023-01-04T05:29:42.650Z,13.20
2023-01-04T05:32:28.299Z,13.30
2023-01-04T05:35:14.120Z,13.20
2023-01-04T05:38:01.378Z,13.40
2023-01-04T05:40:47.499Z,13.30
2023-01-04T05:43:33.160Z,13.20
2023-01-04T05:46:18.775Z,13.30
2023-01-04T05:49:04.263Z,13.20
2023-01-04T05:51:49.939Z,13.20
2023-01-04T05:54:36.789Z,13.00
2023-01-04T05:57:22.341Z,13.20
2023-01-04T06:00:10.114Z,13.30
2023-01-04T06:02:58.561Z,13.20
2023-01-04T06:05:48.791Z,13.10
2023-01-04T06:08:34.514Z,13.10
2023-01-04T06:11:27.419Z,13.20
2023-01-04T06:14:13.465Z,13.40
2023-01-04T06:16:59.440Z,13.30
2023-01-04T06:19:45.031Z,13.30
2023-01-04T06:22:30.710Z,13.30
2023-01-04T06:25:17.329Z,13.50
2023-01-04T06:28:04.413Z,13.50
2023-01-04T06:30:50.378Z,13.40
2023-01-04T06:33:36.117Z,13.40
2023-01-04T06:36:21.686Z,13.40
2023-01-04T06:39:08.780Z,13.20
2023-01-04T06:41:56.117Z,13.10
2023-01-04T06:44:45.923Z,13.10
2023-01-04T06:47:31.484Z,13.30
2023-01-04T06:50:17.368Z,13.30
2023-01-04T06:53:03.271Z,13.40
2023-01-04T06:55:49.168Z,13.60
2023-01-04T06:58:34.666Z,13.50
2023-01-04T07:01:21.632Z,13.40
2023-01-04T07:04:07.745Z,13.60
2023-01-04T07:06:53.693Z,13.60
2023-01-04T07:09:39.556Z,13.50
2023-01-04T07:12:25.810Z,13.30
2023-01-04T07:15:37.175Z,13.40
2023-01-04T07:18:19.177Z,13.40
2023-01-04T07:21:06.096Z,13.40
2023-01-04T07:23:51.582Z,13.50
2023-01-04T07:26:37.539Z,13.50
2023-01-04T07:29:22.895Z,13.50
2023-01-04T07:32:13.652Z,13.60
2023-01-04T07:35:01.417Z,13.60
2023-01-04T07:37:52.180Z,13.30
2023-01-04T07:40:55.989Z,13.20
2023-01-04T07:43:42.204Z,13.40
2023-01-04T07:46:28.078Z,13.40
2023-01-04T07:49:17.744Z,13.40
2023-01-04T07:52:05.267Z,13.60
2023-01-04T07:54:50.959Z,13.50
2023-01-04T07:57:36.773Z,13.50
2023-01-04T08:00:22.793Z,13.40
2023-01-04T08:03:08.851Z,13.50
2023-01-04T08:05:54.700Z,13.50
2023-01-04T08:08:42.362Z,13.50
2023-01-04T08:11:28.496Z,13.40
2023-01-04T08:14:14.300Z,13.50
2023-01-04T08:16:59.773Z,13.60
2023-01-04T08:19:46.701Z,13.60
2023-01-04T08:22:32.370Z,13.60
2023-01-04T08:25:19.719Z,13.60
2023-01-04T08:28:05.369Z,13.50
2023-01-04T08:30:51.094Z,13.70
2023-01-04T08:33:38.327Z,13.80
2023-01-04T08:36:27.392Z,13.80
2023-01-04T08:39:13.493Z,13.90
2023-01-04T08:42:14.544Z,13.90
2023-01-04T08:45:07.349Z,13.80
2023-01-04T08:47:52.999Z,13.70
2023-01-04T08:50:38.672Z,13.80
2023-01-04T08:53:24.690Z,13.90
2023-01-04T08:56:11.102Z,13.70
2023-01-04T08:58:57.862Z,13.80
2023-01-04T09:01:44.041Z,13.80
2023-01-04T09:04:29.936Z,13.70
2023-01-04T09:07:15.924Z,13.60
2023-01-04T09:10:01.445Z,13.50
2023-01-04T09:12:47.932Z,13.60
2023-01-04T09:15:36.122Z,13.70
2023-01-04T09:18:30.806Z,13.60
2023-01-04T09:21:20.349Z,13.80
2023-01-04T09:24:06.504Z,13.80
2023-01-04T09:26:52.169Z,13.70
2023-01-04T09:29:38.434Z,13.80
2023-01-04T09:32:26.340Z,14.00
2023-01-04T09:35:12.345Z,13.70
2023-01-04T09:37:58.178Z,13.80
2023-01-04T09:40:54.152Z,13.90
2023-01-04T09:43:43.870Z,13.90
2023-01-04T09:46:32.950Z,14.10
2023-01-04T09:49:22.845Z,14.30
2023-01-04T09:52:13.424Z,14.50
2023-01-04T09:55:04.762Z,14.60
2023-01-04T09:58:08.760Z,14.40
2023-01-04T10:00:58.196Z,14.50
2023-01-04T10:03:47.936Z,14.60
2023-01-04T10:06:35.280Z,14.60
2023-01-04T10:09:21.105Z,14.50
2023-01-04T10:12:14.008Z,14.50
2023-01-04T10:15:05.398Z,14.50
2023-01-04T10:21:31.442Z,14.70
2023-01-04T10:24:33.918Z,14.70
2023-01-04T10:27:23.802Z,14.70
2023-01-04T10:30:21.250Z,14.70
2023-01-04T10:33:10.672Z,14.70
2023-01-04T10:35:56.828Z,14.70
2023-01-04T10:38:43.120Z,14.70
2023-01-04T10:41:33.494Z,14.90
2023-01-04T10:44:25.156Z,14.60
2023-01-04T10:47:14.500Z,14.70
2023-01-04T10:50:02.426Z,14.70
2023-01-04T10:52:51.375Z,14.30
2023-01-04T10:55:39.367Z,14.30
2023-01-04T10:58:29.207Z,14.60
2023-01-04T11:01:18.716Z,14.50
2023-01-04T11:04:10.078Z,14.70
2023-01-04T11:06:59.236Z,14.70
2023-01-04T11:09:47.279Z,14.70
2023-01-04T11:12:32.940Z,14.70
2023-01-04T11:15:20.164Z,14.40
2023-01-04T11:18:06.896Z,14.60
2023-01-04T11:20:52.958Z,14.60
2023-01-04T11:23:38.163Z,14.70
2023-01-04T11:26:27.593Z,14.70
2023-01-04T11:29:22.681Z,14.70
2023-01-04T11:32:15.090Z,14.60
2023-01-04T11:35:01.014Z,14.40
2023-01-04T11:37:46.672Z,14.50
2023-01-04T11:40:33.337Z,14.50
2023-01-04T11:43:19.637Z,14.50
2023-01-04T11:46:06.416Z,14.50
2023-01-04T11:48:53.561Z,14.50
2023-01-04T11:51:41.966Z,14.40
2023-01-04T11:54:27.655Z,14.60
2023-01-04T11:57:17.896Z,14.70
2023-01-04T12:00:14.612Z,14.60
2023-01-04T12:03:10.567Z,15.00
2023-01-04T12:05:57.749Z,15.20
2023-01-04T12:08:43.579Z,15.20
2023-01-04T12:11:30.132Z,14.90
2023-01-04T12:14:20.055Z,14.70
2023-01-04T12:17:07.896Z,14.90
2023-01-04T12:19:57.576Z,15.00
2023-01-04T12:22:44.461Z,14.90
2023-01-04T12:25:32.721Z,15.00
2023-01-04T12:28:31.467Z,15.20
2023-01-04T12:31:27.158Z,15.30
2023-01-04T12:34:31.158Z,15.50
2023-01-04T12:37:31.309Z,15.70
2023-01-04T12:40:35.701Z,15.70
2023-01-04T12:43:26.895Z,15.60
2023-01-04T12:46:49.914Z,15.60
2023-01-04T12:49:50.250Z,15.50
2023-01-04T12:53:10.827Z,15.40
2023-01-04T12:55:52.637Z,15.70
2023-01-04T13:02:22.912Z,15.70
2023-01-04T13:08:33.195Z,15.80
2023-01-04T13:11:24.217Z,16.00
2023-01-04T13:14:12.960Z,15.80
2023-01-04T13:17:06.833Z,15.60
2023-01-04T13:19:53.718Z,15.60
2023-01-04T13:22:39.796Z,15.60
2023-01-04T13:25:25.934Z,15.50
2023-01-04T13:28:17.417Z,15.40
2023-01-04T13:31:02.803Z,15.60
2023-01-04T13:33:48.656Z,15.60
2023-01-04T13:36:35.397Z,15.70
2023-01-04T13:39:21.021Z,15.60
2023-01-04T13:42:12.004Z,15.50
2023-01-04T13:45:20.395Z,15.80
2023-01-04T13:48:09.915Z,15.80
2023-01-04T13:50:59.628Z,15.70
2023-01-04T13:53:53.692Z,15.80
2023-01-04T13:56:39.181Z,15.70
2023-01-04T13:59:24.885Z,15.90
2023-01-04T14:02:15.454Z,16.20
2023-01-04T14:05:01.652Z,16.00
2023-01-04T14:07:47.076Z,15.90
2023-01-04T14:10:34.169Z,16.00
2023-01-04T14:13:20.493Z,15.80
2023-01-04T14:16:10.768Z,15.50
2023-01-04T14:18:56.388Z,15.70
2023-01-04T14:21:42.262Z,16.00
2023-01-04T14:25:07.960Z,15.80
2023-01-04T14:27:39.718Z,15.80
2023-01-04T14:30:26.264Z,16.00
2023-01-04T14:33:15.363Z,15.90
2023-01-04T14:36:02.300Z,15.90
2023-01-04T14:38:51.876Z,16.00
2023-01-04T14:41:38.629Z,15.80
2023-01-04T14:44:28.298Z,16.00
2023-01-04T14:47:14.295Z,16.10
2023-01-04T14:49:59.562Z,15.90
2023-01-04T14:52:50.062Z,15.80
2023-01-04T14:55:35.565Z,15.80
2023-01-04T14:58:21.002Z,15.90
2023-01-04T15:01:08.441Z,15.80
2023-01-04T15:03:54.399Z,15.70
2023-01-04T15:06:46.991Z,15.90
2023-01-04T15:09:32.323Z,15.70
2023-01-04T15:12:17.851Z,15.40
2023-01-04T15:15:04.487Z,15.60
2023-01-04T15:17:51.624Z,15.90
2023-01-04T15:20:39.137Z,15.70
2023-01-04T15:23:24.727Z,15.50
2023-01-04T15:26:11.352Z,15.40
2023-01-04T15:28:57.363Z,15.30
2023-01-04T15:31:44.628Z,15.10
2023-01-04T15:34:31.909Z,15.00
2023-01-04T15:37:23.572Z,15.10
2023-01-04T15:40:10.279Z,15.20
2023-01-04T15:42:58.732Z,15.20
2023-01-04T15:45:45.440Z,15.20
2023-01-04T15:49:22.956Z,15.10
2023-01-04T15:52:11.386Z,15.00
2023-01-04T15:54:57.232Z,15.10
2023-01-04T15:57:44.336Z,15.10
2023-01-04T16:00:30.378Z,15.00
2023-01-04T16:03:16.193Z,15.20
2023-01-04T16:06:06.043Z,15.40
2023-01-04T16:08:53.116Z,15.40
2023-01-04T16:11:58.546Z,15.10
2023-01-04T16:14:44.003Z,14.90
2023-01-04T16:17:29.840Z,15.00
2023-01-04T16:20:17.027Z,15.20
2023-01-04T16:23:04.036Z,15.10
2023-01-04T16:25:49.701Z,15.10
2023-01-04T16:28:35.813Z,14.90
2023-01-04T16:31:21.884Z,15.00
2023-01-04T16:34:07.777Z,14.90
2023-01-04T16:36:54.058Z,15.10
2023-01-04T16:42:50.836Z,15.20
2023-01-04T16:45:35.945Z,15.10
2023-01-04T16:48:21.655Z,14.90
2023-01-04T16:51:07.525Z,15.10
2023-01-04T16:53:53.742Z,14.90
2023-01-04T16:56:41.236Z,15.10
2023-01-04T16:59:27.068Z,15.30
2023-01-04T17:02:12.702Z,15.40
2023-01-04T17:04:59.693Z,15.50
2023-01-04T17:07:45.580Z,15.60
2023-01-04T17:10:31.080Z,15.10
2023-01-04T17:13:18.059Z,14.90
2023-01-04T17:16:04.001Z,15.10
2023-01-04T17:18:50.309Z,14.90
2023-01-04T17:21:36.203Z,14.80
2023-01-04T17:24:22.000Z,15.10
2023-01-04T17:27:07.698Z,15.20
2023-01-04T17:29:55.487Z,15.10
2023-01-04T17:32:41.259Z,15.00
2023-01-04T17:35:27.177Z,14.80
2023-01-04T17:38:12.668Z,14.70
2023-01-04T17:41:05.928Z,14.80
2023-01-04T17:43:52.570Z,14.80
2023-01-04T17:46:39.539Z,15.10
2023-01-04T17:49:30.772Z,15.10
2023-01-04T17:52:22.353Z,14.70
2023-01-04T17:55:11.684Z,14.80
2023-01-04T17:57:57.456Z,14.90
2023-01-04T18:00:43.457Z,14.90
2023-01-04T18:03:30.363Z,15.20
2023-01-04T18:06:25.514Z,15.10
2023-01-04T18:09:12.410Z,15.10
2023-01-04T18:11:58.956Z,15.30
2023-01-04T18:14:44.702Z,15.10
2023-01-04T18:17:30.205Z,15.00
2023-01-04T18:20:24.659Z,14.80
2023-01-04T18:23:18.978Z,14.80
2023-01-04T18:26:10.851Z,15.10
2023-01-04T18:28:56.412Z,14.90
2023-01-04T18:31:41.705Z,15.00
2023-01-04T18:34:27.338Z,15.00
2023-01-04T18:37:16.054Z,14.70
2023-01-04T18:40:02.805Z,14.90
2023-01-04T18:42:48.462Z,15.00
2023-01-04T18:45:34.300Z,14.90
2023-01-04T18:48:19.824Z,14.90
2023-01-04T18:51:06.406Z,14.80
2023-01-04T18:53:53.587Z,14.80
2023-01-04T18:56:39.484Z,14.80
2023-01-04T18:59:25.078Z,14.90
2023-01-04T19:02:15.355Z,14.70
2023-01-04T19:05:01.315Z,14.80
2023-01-04T19:07:47.006Z,15.00
2023-01-04T19:10:33.713Z,15.10
2023-01-04T19:13:20.631Z,15.10
2023-01-04T19:16:07.697Z,14.90
2023-01-04T19:18:53.241Z,14.70
2023-01-04T19:21:38.908Z,14.70
2023-01-04T19:24:24.369Z,14.60
2023-01-04T19:27:12.015Z,14.80
2023-01-04T19:29:58.988Z,15.00
2023-01-04T19:32:44.548Z,14.90
2023-01-04T19:35:29.994Z,14.80
2023-01-04T19:38:15.985Z,14.70
2023-01-04T19:41:02.603Z,14.90
2023-01-04T19:43:48.277Z,14.90
2023-01-04T19:46:37.619Z,14.80
2023-01-04T19:49:23.382Z,14.80
2023-01-04T19:52:09.059Z,14.80
2023-01-04T19:54:54.423Z,14.70
2023-01-04T19:57:39.814Z,14.80
2023-01-04T20:00:25.881Z,14.60
2023-01-04T20:03:13.065Z,14.70
2023-01-04T20:06:01.002Z,14.60
2023-01-04T20:08:46.395Z,14.80
2023-01-04T20:11:31.862Z,14.70
2023-01-04T20:14:17.389Z,14.70
2023-01-04T20:17:02.964Z,14.70
2023-01-04T20:19:49.698Z,14.90
2023-01-04T20:22:35.491Z,15.00
2023-01-04T20:25:20.898Z,15.10
2023-01-04T20:28:06.765Z,15.00
2023-01-04T20:31:00.195Z,14.90
2023-01-04T20:33:45.931Z,15.10
2023-01-04T20:36:33.622Z,15.10
2023-01-04T20:39:19.324Z,15.10
2023-01-04T20:42:23.510Z,15.10
2023-01-04T20:45:09.180Z,15.10
2023-01-04T20:47:54.864Z,14.90
2023-01-04T20:50:41.281Z,15.10
2023-01-04T20:53:30.075Z,15.10
2023-01-04T20:56:17.147Z,15.00
2023-01-04T20:59:04.340Z,15.20
2023-01-04T21:01:49.592Z,15.00
2023-01-04T21:04:35.318Z,14.50
2023-01-04T21:07:20.933Z,14.90
2023-01-04T21:10:08.444Z,15.00
2023-01-04T21:12:54.037Z,15.20
2023-01-04T21:15:39.887Z,14.80
2023-01-04T21:18:26.019Z,14.80
2023-01-04T21:21:12.687Z,14.70
2023-01-04T21:23:58.651Z,14.60
2023-01-04T21:26:45.787Z,14.80
2023-01-04T21:29:35.191Z,14.70
2023-01-04T21:32:21.247Z,14.60
2023-01-04T21:35:08.061Z,14.50
2023-01-04T21:37:54.014Z,14.70
2023-01-04T21:40:41.502Z,14.80
2023-01-04T21:43:29.064Z,14.50
2023-01-04T21:46:15.859Z,14.40
2023-01-04T21:49:02.629Z,14.50
2023-01-04T21:51:48.814Z,14.50
2023-01-04T21:54:34.639Z,14.50
2023-01-04T21:57:20.517Z,14.50
2023-01-04T22:00:09.806Z,14.30
2023-01-04T22:02:55.657Z,14.40
2023-01-04T22:05:41.665Z,14.40
2023-01-04T22:08:27.267Z,14.30
2023-01-04T22:11:14.717Z,14.30
2023-01-04T22:14:00.403Z,14.30
2023-01-04T22:16:47.357Z,14.10
2023-01-04T22:19:33.004Z,13.90
2023-01-04T22:22:18.796Z,14.10
2023-01-04T22:25:04.721Z,14.10
2023-01-04T22:27:50.274Z,13.90
2023-01-04T22:30:40.622Z,14.00
2023-01-04T22:33:27.623Z,13.90
2023-01-04T22:36:22.205Z,13.70
2023-01-04T22:39:08.554Z,13.80
2023-01-04T22:41:54.128Z,13.70
2023-01-04T22:44:40.136Z,13.40
2023-01-04T22:47:25.533Z,13.60
2023-01-04T22:50:12.905Z,13.50
2023-01-04T22:52:58.735Z,13.70
2023-01-04T22:56:17.913Z,13.70
2023-01-04T22:58:53.294Z,13.80
2023-01-04T23:01:40.083Z,13.60
2023-01-04T23:04:25.583Z,13.80
2023-01-04T23:07:13.115Z,13.90
2023-01-04T23:09:59.095Z,14.00
2023-01-04T23:12:44.730Z,14.00
2023-01-04T23:15:30.782Z,13.90
2023-01-04T23:18:16.262Z,13.80
2023-01-04T23:21:02.131Z,13.90
2023-01-04T23:23:50.609Z,13.80
2023-01-04T23:26:36.044Z,13.80
2023-01-04T23:29:22.086Z,13.90
2023-01-04T23:32:08.013Z,14.00
2023-01-04T23:34:53.523Z,14.10
2023-01-04T23:37:39.217Z,14.00
2023-01-04T23:40:26.267Z,14.10
2023-01-04T23:43:11.949Z,14.10
2023-01-04T23:45:57.911Z,14.20
2023-01-04T23:48:44.380Z,13.90
2023-01-04T23:51:30.030Z,13.80
2023-01-04T23:54:15.839Z,13.80
2023-01-04T23:57:03.763Z,13.60
2023-01-04T23:59:49.758Z,13.60
